Nearby METAR Reports

 

KHIF - Hill Afb/Ogden, Utah, USA
Distance from station: ENE 6mi, 9km
Updated: Sun, 17-Nov-2019 2:58am MST
Clear
Clear
 Wind from ESE
Wind: ESE 6 mph , 9 km/h
Temperature: 37°F , 3°C
Wind Chill: 32°F , 0°C
Dew Point: 25°F , -4°C
Humidity: 60%
Barometer: 30.35 inHg , 1027.8 hPa
Clouds: Clear
Visibility: 10 miles , 16 km
2019/11/17 09:58 KHIF 170958Z AUTO 11005KT 10SM CLR 03/M04 A3035 RMK AO2 SLP264 T00251040
KOGD - Ogden, Utah, USA
Distance from station: NNE 9mi, 14km
Updated: Sun, 17-Nov-2019 2:53am MST
Clear
Clear
 Wind from S
Wind: S 8 mph , 13 km/h
Temperature: 34°F , 1°C
Wind Chill: 27°F , -3°C
Dew Point: 25°F , -4°C
Humidity: 70%
Barometer: 30.35 inHg , 1027.8 hPa
Clouds: Clear
Visibility: 10 miles , 16 km
2019/11/17 09:53 KOGD 170953Z AUTO 17007KT 10SM CLR 01/M04 A3035 RMK AO2 SLP271 T00111044 $
 
KSLC - Salt Lake City, Utah, USA
Distance from station: SSE 21mi, 34km
Updated: Sun, 17-Nov-2019 2:54am MST
Few Clouds
Few Clouds
 Wind from SE
Wind: SE 5 mph , 7 km/h
Temperature: 36°F , 2°C
Wind Chill: 32°F , 0°C
Dew Point: 27°F , -3°C
Humidity: 70%
Barometer: 30.36 inHg , 1028.1 hPa
Clouds: Few Clouds
Visibility: 10 miles , 16 km
Cloud details: Few Clouds 20000 ft
2019/11/17 09:54 KSLC 170954Z 13004KT 10SM FEW200 02/M03 A3036 RMK AO2 SLP272 T00171028
KLGU - Logan, Utah, USA
Distance from station: NNE 50mi, 80km
Updated: Sun, 17-Nov-2019 2:51am MST
Clear
Clear
 Wind from calm
Wind: Calm
Temperature: 27°F , -3°C
Dew Point: 21°F , -6°C
Humidity: 80%
Barometer: 30.37 inHg , 1028.4 hPa
Clouds: Clear
Visibility: 10 miles , 16 km
2019/11/17 09:51 KLGU 170951Z AUTO 00000KT 10SM CLR M03/M06 A3037 RMK AO2 SLP287 T10331056
 
K36U - Heber/Russ Mcdon, Utah, USA
Distance from station: SE 53mi, 85km
Updated: Wed, 11-Oct-2017 6:50pm MDT
NOT Current
Clear
Clear
 Wind from SSW
Wind: SSW 10 mph , 17 km/h, Gust: 18 mph , 30 km/h
Temperature: 63°F , 17°C
Dew Point: 16°F , -9°C
Humidity: 16%
Barometer: 29.87 inHg , 1011.5 hPa
Clouds: Clear
Visibility: 10 miles , 16 km
2017/10/12 00:50 K36U 120050Z AUTO 21009G16KT 10SM CLR 17/M09 A2987 RMK AO2
KEVW - Evanston, Wyoming, USA
Distance from station: ENE 55mi, 89km
Updated: Sun, 17-Nov-2019 2:53am MST
Clear
Clear
 Wind from WSW
Wind: WSW 12 mph , 19 km/h
Temperature: 27°F , -3°C
Wind Chill: 16°F , -9°C
Dew Point: 19°F , -7°C
Humidity: 74%
Barometer: 30.34 inHg , 1027.4 hPa
Clouds: Clear
Visibility: 10 miles , 16 km
2019/11/17 09:53 KEVW 170953Z AUTO 24010KT 10SM CLR M03/M07 A3034 RMK AO2 SLP272 T10331067
 
KPVU - Provo Muni, Utah, USA
Distance from station: SSE 62mi, 100km
Updated: Sun, 17-Nov-2019 2:56am MST
Clear
Clear
 Wind from calm
Wind: Calm
Temperature: 28°F , -2°C
Dew Point: 25°F , -4°C
Humidity: 86%
Barometer: 30.38 inHg , 1028.8 hPa
Clouds: Clear
Visibility: 10 miles , 16 km
2019/11/17 09:56 KPVU 170956Z AUTO 00000KT 10SM CLR M02/M04 A3038 RMK AO2 SLP286 T10171044 FZRANO
KDPG - Dugway Prvg Grou, Utah, USA
Distance from station: SW 75mi, 121km
Updated: Thu, 14-Nov-2019 4:55pm MST
NOT Current
Mostly cloudy
Mostly cloudy
 Wind from WNW
Wind: WNW 3 mph , 6 km/h
Temperature: 52°F , 11°C
Dew Point: 27°F , -3°C
Humidity: 38%
Barometer: 30.16 inHg , 1021.3 hPa
Clouds: Mostly cloudy
Visibility: 50 miles , 80 km
Cloud details: Partly cloudy 14000 ft
Mostly cloudy 16000 ft
Mostly cloudy 22000 ft
2019/11/14 23:55 KDPG 142355Z 29003KT 50SM SCT140 BKN160 BKN220 11/M03 A3016 RMK VIRGA ALQDS SLP204 T01121034 10148 20103 57009 LAST
 
KENV - Wendover (aut), Utah, USA
Distance from station: WSW 105mi, 169km
Updated: Sun, 17-Nov-2019 2:56am MST
Clear
Clear
 Wind from calm
Wind: Calm
Temperature: 32°F , 0°C
Dew Point: 25°F , -4°C
Humidity: 75%
Barometer: 30.36 inHg , 1028.1 hPa
Clouds: Clear
Visibility: 10 miles , 16 km
2019/11/17 09:56 KENV 170956Z AUTO 00000KT 10SM CLR 00/M04 A3036 RMK AO2 SLP291 T00001039 FZRANO
KPUC - Price, Utah, USA
Distance from station: SE 123mi, 197km
Updated: Sun, 17-Nov-2019 2:53am MST
Clear
Clear
 Wind from NW
Wind: NW 9 mph , 15 km/h, Gust: 18 mph , 30 km/h
Temperature: 45°F , 7°C
Wind Chill: 40°F , 4°C
Dew Point: 18°F , -8°C
Humidity: 34%
Barometer: 30.29 inHg , 1025.7 hPa
Clouds: Clear
Visibility: 10 miles , 16 km
2019/11/17 09:53 KPUC 170953Z AUTO 32008G16KT 10SM CLR 07/M08 A3029 RMK AO2 SLP239 T00671083
 
KPIH - Pocatello, Idaho, USA
Distance from station: NNW 130mi, 208km
Updated: Sun, 17-Nov-2019 2:53am MST
Clear
Clear
 Wind from SSW
Wind: SSW 8 mph , 13 km/h
Temperature: 34°F , 1°C
Wind Chill: 27°F , -3°C
Dew Point: 23°F , -5°C
Humidity: 65%
Barometer: 30.34 inHg , 1027.4 hPa
Clouds: Clear
Visibility: 10 miles , 16 km
2019/11/17 09:53 KPIH 170953Z AUTO 21007KT 10SM CLR 01/M05 A3034 RMK AO2 SLP278 T00111050
KBYI - Burley, Idaho, USA
Distance from station: NW 134mi, 216km
Updated: Sun, 17-Nov-2019 2:53am MST
Clear
Clear
 Wind from calm
Wind: Calm
Temperature: 30°F , -1°C
Dew Point: 25°F , -4°C
Humidity: 80%
Barometer: 30.33 inHg , 1027.1 hPa
Clouds: Clear
Visibility: 10 miles , 16 km
2019/11/17 09:53 KBYI 170953Z AUTO 00000KT 10SM CLR M01/M04 A3033 RMK AO2 SLP273 T10061044
 
KVEL - Vernal, Utah, USA
Distance from station: ESE 140mi, 226km
Updated: Sun, 17-Nov-2019 2:53am MST
Clear
Clear
 Wind from calm
Wind: Calm
Temperature: 28°F , -2°C
Dew Point: 18°F , -8°C
Humidity: 64%
Barometer: 30.31 inHg , 1026.4 hPa
Clouds: Clear
Visibility: 10 miles , 16 km
2019/11/17 09:53 KVEL 170953Z AUTO 00000KT 10SM CLR M02/M08 A3031 RMK AO2 SLP256 T10221083
KBPI - Big Piney, Wyoming, USA
Distance from station: NE 145mi, 234km
Updated: Sun, 17-Nov-2019 2:53am MST
Clear
Clear
 Wind from calm
Wind: Calm
Temperature: 16°F , -9°C
Dew Point: 12°F , -11°C
Humidity: 86%
Barometer: 30.29 inHg , 1025.7 hPa
Clouds: Clear
Visibility: 10 miles , 16 km
2019/11/17 09:53 KBPI 170953Z AUTO 00000KT 10SM CLR M09/M11 A3029 RMK AO2 SLP265 T10891111